< < Back
Terminal Aerodrome Forecast


Current Version              Previous Versions:   1  2  3  4  5  6  7  8  9  

Terminal Aerodrome Forecast

776
FTUS44 KMRX 281813 AAA
TAFTYS
TAF AMD
KTYS 281813Z 2818/2918 28011KT P6SM SCT050
     FM290200 33004KT P6SM SCT120 BKN200
     FM291400 28008KT P6SM SCT060=



Latest METAR

584
SAUS80 KWBC 290000 RRB
MTRTYS
METAR KTYS 282353Z 35004KT 10SM FEW045 SCT080 BKN110 24/16 A2995 RMK AO2
SLP133 T02440161 10278 20244 53001


USA.gov is the U.S. government's official web portal to all federal, state and local government web resources and services.